Time,TemperatureF,DewpointF,PressureIn,WindDirection,WindDirectionDegrees,WindSpeedMPH,WindSpeedGustMPH,Humidity,HourlyPrecipIn,Conditions,Clouds,dailyrainin,SoftwareType,DateUTC
2013-05-21 00:00:00,66.4,61.1,29.97,SW,233,0.0,3.0,83,0.00,,,0.00,Wunderground v.1.15,2013-05-21 04:00:00,
2013-05-21 00:05:00,66.4,61.1,29.96,WSW,242,1.0,3.0,83,0.00,,,0.00,Wunderground v.1.15,2013-05-21 04:05:00,
2013-05-21 00:10:00,66.4,61.1,29.96,SW,217,1.0,3.0,83,0.00,,,0.00,Wunderground v.1.15,2013-05-21 04:10:00,
2013-05-21 00:15:00,66.3,61.0,29.95,SSW,208,1.0,3.0,83,0.00,,,0.00,Wunderground v.1.15,2013-05-21 04:15:00,
2013-05-21 00:20:00,66.3,61.3,29.95,SW,229,1.0,3.0,84,0.00,,,0.00,Wunderground v.1.15,2013-05-21 04:20:00,
2013-05-21 00:25:00,66.2,61.2,29.95,South,188,1.0,3.0,84,0.00,,,0.00,Wunderground v.1.15,2013-05-21 04:25:00,
2013-05-21 00:30:00,66.2,61.2,29.95,SW,214,2.0,3.0,84,0.00,,,0.00,Wunderground v.1.15,2013-05-21 04:30:00,
2013-05-21 00:35:00,66.2,61.2,29.95,SSW,211,1.0,3.0,84,0.00,,,0.00,Wunderground v.1.15,2013-05-21 04:35:00,
2013-05-21 00:40:00,66.1,61.1,29.95,SW,231,1.0,3.0,84,0.00,,,0.00,Wunderground v.1.15,2013-05-21 04:40:00,
2013-05-21 00:45:00,66.1,61.1,29.95,South,184,1.0,3.0,84,0.00,,,0.00,Wunderground v.1.15,2013-05-21 04:45:00,
2013-05-21 00:50:00,66.2,61.6,29.95,SW,228,1.0,3.0,85,0.00,,,0.00,Wunderground v.1.15,2013-05-21 04:50:00,
2013-05-21 00:55:00,66.3,61.7,29.94,SW,217,1.0,3.0,85,0.00,,,0.00,Wunderground v.1.15,2013-05-21 04:55:00,
2013-05-21 01:00:00,66.5,61.5,29.95,SW,214,2.0,2.0,84,0.00,,,0.00,Wunderground v.1.15,2013-05-21 05:00:00,
2013-05-21 01:05:00,66.6,61.6,29.94,SW,229,1.0,3.0,84,0.00,,,0.00,Wunderground v.1.15,2013-05-21 05:05:00,
2013-05-21 01:10:00,66.7,61.7,29.94,SSW,201,1.0,1.0,84,0.00,,,0.00,Wunderground v.1.15,2013-05-21 05:10:00,
2013-05-21 01:15:00,66.7,62.0,29.94,WSW,244,1.0,3.0,85,0.00,,,0.00,Wunderground v.1.15,2013-05-21 05:15:00,
2013-05-21 01:20:00,66.8,61.8,29.93,SW,217,0.0,3.0,84,0.00,,,0.00,Wunderground v.1.15,2013-05-21 05:20:00,
2013-05-21 01:25:00,66.8,62.1,29.93,SW,236,0.0,3.0,85,0.00,,,0.00,Wunderground v.1.15,2013-05-21 05:25:00,
2013-05-21 01:30:00,66.9,61.9,29.93,SW,226,0.0,3.0,84,0.00,,,0.00,Wunderground v.1.15,2013-05-21 05:30:00,
2013-05-21 01:35:00,66.8,61.8,29.93,WSW,240,1.0,3.0,84,0.00,,,0.00,Wunderground v.1.15,2013-05-21 05:35:00,
2013-05-21 01:40:00,66.8,62.1,29.92,SW,235,1.0,1.0,85,0.00,,,0.00,Wunderground v.1.15,2013-05-21 05:40:00,
2013-05-21 01:45:00,66.7,62.0,29.92,WSW,238,1.0,3.0,85,0.00,,,0.00,Wunderground v.1.15,2013-05-21 05:45:00,
2013-05-21 01:50:00,66.6,61.9,29.92,SW,226,0.0,3.0,85,0.00,,,0.00,Wunderground v.1.15,2013-05-21 05:50:00,
2013-05-21 01:55:00,66.5,61.8,29.91,WSW,238,1.0,5.0,85,0.00,,,0.00,Wunderground v.1.15,2013-05-21 05:55:00,
2013-05-21 02:00:00,66.4,61.8,29.91,SW,217,1.0,3.0,85,0.00,,,0.00,Wunderground v.1.15,2013-05-21 06:00:00,
2013-05-21 02:05:00,66.4,62.1,29.90,SW,214,1.0,3.0,86,0.00,,,0.00,Wunderground v.1.15,2013-05-21 06:05:00,
2013-05-21 02:10:00,66.4,62.1,29.91,SW,233,1.0,1.0,86,0.00,,,0.00,Wunderground v.1.15,2013-05-21 06:10:00,
2013-05-21 02:15:00,66.4,62.1,29.91,SSW,212,0.0,3.0,86,0.00,,,0.00,Wunderground v.1.15,2013-05-21 06:15:00,
2013-05-21 02:20:00,66.3,62.0,29.91,SW,220,0.0,3.0,86,0.00,,,0.00,Wunderground v.1.15,2013-05-21 06:20:00,
2013-05-21 02:25:00,66.3,62.0,29.91,SW,233,1.0,3.0,86,0.00,,,0.00,Wunderground v.1.15,2013-05-21 06:25:00,
2013-05-21 02:30:00,66.4,62.4,29.90,SSW,192,1.0,1.0,87,0.00,,,0.00,Wunderground v.1.15,2013-05-21 06:30:00,
2013-05-21 02:35:00,66.5,62.5,29.90,WSW,252,1.0,2.0,87,0.00,,,0.00,Wunderground v.1.15,2013-05-21 06:35:00,
2013-05-21 02:40:00,66.7,62.7,29.90,West,270,1.0,1.0,87,0.00,,,0.00,Wunderground v.1.15,2013-05-21 06:40:00,
2013-05-21 02:45:00,66.6,62.6,29.90,WNW,284,1.0,3.0,87,0.00,,,0.00,Wunderground v.1.15,2013-05-21 06:45:00,
2013-05-21 02:50:00,66.4,62.4,29.91,WNW,288,0.0,3.0,87,0.00,,,0.00,Wunderground v.1.15,2013-05-21 06:50:00,
2013-05-21 02:55:00,66.2,62.2,29.92,WNW,288,0.0,3.0,87,0.00,,,0.00,Wunderground v.1.15,2013-05-21 06:55:00,
2013-05-21 03:00:00,66.2,62.9,29.92,WNW,288,0.0,3.0,89,0.00,,,0.00,Wunderground v.1.15,2013-05-21 07:00:00,
2013-05-21 03:05:00,66.2,62.9,29.92,SSW,205,0.0,3.0,89,0.00,,,0.00,Wunderground v.1.15,2013-05-21 07:05:00,
2013-05-21 03:10:00,66.3,63.0,29.93,SSW,205,0.0,3.0,89,0.00,,,0.00,Wunderground v.1.15,2013-05-21 07:10:00,
2013-05-21 03:15:00,66.3,63.0,29.93,West,265,0.0,3.0,89,0.00,,,0.00,Wunderground v.1.15,2013-05-21 07:15:00,
2013-05-21 03:20:00,66.3,63.3,29.93,West,264,0.0,3.0,90,0.00,,,0.00,Wunderground v.1.15,2013-05-21 07:20:00,
2013-05-21 03:25:00,66.4,63.4,29.93,West,264,0.0,3.0,90,0.00,,,0.00,Wunderground v.1.15,2013-05-21 07:25:00,
2013-05-21 03:30:00,66.4,63.4,29.93,West,264,0.0,3.0,90,0.00,,,0.00,Wunderground v.1.15,2013-05-21 07:30:00,
2013-05-21 03:35:00,66.4,63.4,29.93,SW,233,0.0,3.0,90,0.00,,,0.00,Wunderground v.1.15,2013-05-21 07:35:00,
2013-05-21 03:40:00,66.3,63.3,29.92,SW,233,0.0,3.0,90,0.00,,,0.00,Wunderground v.1.15,2013-05-21 07:40:00,
2013-05-21 03:45:00,66.1,63.1,29.93,SW,233,0.0,3.0,90,0.00,,,0.00,Wunderground v.1.15,2013-05-21 07:45:00,
2013-05-21 03:50:00,65.9,62.9,29.92,SW,233,0.0,3.0,90,0.00,,,0.00,Wunderground v.1.15,2013-05-21 07:50:00,
2013-05-21 03:55:00,65.6,62.6,29.93,SW,233,0.0,3.0,90,0.00,,,0.00,Wunderground v.1.15,2013-05-21 07:55:00,
2013-05-21 04:00:00,65.3,62.3,29.93,SW,233,0.0,3.0,90,0.00,,,0.00,Wunderground v.1.15,2013-05-21 08:00:00,
2013-05-21 04:05:00,65.0,62.0,29.94,SW,233,0.0,3.0,90,0.00,,,0.00,Wunderground v.1.15,2013-05-21 08:05:00,
2013-05-21 04:10:00,64.8,62.1,29.93,SW,233,0.0,3.0,91,0.00,,,0.00,Wunderground v.1.15,2013-05-21 08:10:00,
2013-05-21 04:15:00,64.6,61.9,29.93,SW,233,0.0,3.0,91,0.00,,,0.00,Wunderground v.1.15,2013-05-21 08:15:00,
2013-05-21 04:20:00,64.3,61.6,29.94,SW,233,0.0,3.0,91,0.00,,,0.00,Wunderground v.1.15,2013-05-21 08:20:00,
2013-05-21 04:25:00,64.0,61.3,29.94,SW,232,0.0,3.0,91,0.00,,,0.00,Wunderground v.1.15,2013-05-21 08:25:00,
2013-05-21 04:30:00,63.8,61.4,29.94,SW,233,0.0,3.0,92,0.00,,,0.00,Wunderground v.1.15,2013-05-21 08:30:00,
2013-05-21 04:35:00,63.6,61.2,29.93,SW,232,0.0,3.0,92,0.00,,,0.00,Wunderground v.1.15,2013-05-21 08:35:00,
2013-05-21 04:40:00,63.7,61.6,29.93,SW,233,0.0,3.0,93,0.00,,,0.00,Wunderground v.1.15,2013-05-21 08:40:00,
2013-05-21 04:45:00,63.4,61.0,29.93,SW,233,0.0,3.0,92,0.00,,,0.00,Wunderground v.1.15,2013-05-21 08:45:00,
2013-05-21 04:50:00,63.3,61.2,29.93,SW,236,0.0,3.0,93,0.00,,,0.00,Wunderground v.1.15,2013-05-21 08:50:00,
2013-05-21 04:55:00,63.3,61.2,29.93,SW,236,0.0,3.0,93,0.00,,,0.00,Wunderground v.1.15,2013-05-21 08:55:00,
2013-05-21 05:00:00,63.1,61.0,29.92,SSW,201,0.0,3.0,93,0.00,,,0.00,Wunderground v.1.15,2013-05-21 09:00:00,
2013-05-21 05:05:00,63.2,61.4,29.92,SW,218,1.0,3.0,94,0.00,,,0.00,Wunderground v.1.15,2013-05-21 09:05:00,
2013-05-21 05:10:00,63.3,61.5,29.92,SW,236,1.0,1.0,94,0.00,,,0.00,Wunderground v.1.15,2013-05-21 09:10:00,
2013-05-21 05:15:00,63.2,61.1,29.92,SSW,203,1.0,3.0,93,0.00,,,0.00,Wunderground v.1.15,2013-05-21 09:15:00,
2013-05-21 05:20:00,63.1,61.0,29.93,SW,215,0.0,3.0,93,0.00,,,0.00,Wunderground v.1.15,2013-05-21 09:20:00,
2013-05-21 05:25:00,63.2,61.4,29.93,SW,224,1.0,3.0,94,0.00,,,0.00,Wunderground v.1.15,2013-05-21 09:25:00,
2013-05-21 05:30:00,63.2,61.4,29.93,South,190,0.0,3.0,94,0.00,,,0.00,Wunderground v.1.15,2013-05-21 09:30:00,
2013-05-21 05:35:00,63.3,61.5,29.93,SSW,205,1.0,3.0,94,0.00,,,0.00,Wunderground v.1.15,2013-05-21 09:35:00,
2013-05-21 05:45:00,63.0,60.9,29.93,SSE,157,1.0,3.0,93,0.00,,,0.00,Wunderground v.1.15,2013-05-21 09:45:00,
2013-05-21 05:50:00,63.0,61.2,29.93,SE,143,1.0,3.0,94,0.00,,,0.00,Wunderground v.1.15,2013-05-21 09:50:00,
2013-05-21 05:55:00,63.0,61.2,29.93,SSE,159,1.0,3.0,94,0.00,,,0.00,Wunderground v.1.15,2013-05-21 09:55:00,
2013-05-21 06:00:00,63.0,61.2,29.93,SSE,158,1.0,3.0,94,0.00,,,0.00,Wunderground v.1.15,2013-05-21 10:00:00,
2013-05-21 06:05:00,63.0,61.2,29.93,SSW,212,1.0,3.0,94,0.00,,,0.00,Wunderground v.1.15,2013-05-21 10:05:00,
2013-05-21 06:10:00,63.2,61.4,29.93,South,170,1.0,3.0,94,0.00,,,0.00,Wunderground v.1.15,2013-05-21 10:10:00,
2013-05-21 06:15:00,63.3,61.5,29.93,SSW,198,1.0,3.0,94,0.00,,,0.00,Wunderground v.1.15,2013-05-21 10:15:00,
2013-05-21 06:20:00,63.4,61.6,29.93,SSW,205,1.0,1.0,94,0.00,,,0.00,Wunderground v.1.15,2013-05-21 10:20:00,
2013-05-21 06:25:00,63.7,61.9,29.93,South,189,1.0,3.0,94,0.00,,,0.00,Wunderground v.1.15,2013-05-21 10:25:00,
2013-05-21 06:30:00,64.0,61.9,29.94,SSE,151,0.0,3.0,93,0.00,,,0.00,Wunderground v.1.15,2013-05-21 10:30:00,
2013-05-21 06:35:00,64.4,62.3,29.94,SSE,166,0.0,3.0,93,0.00,,,0.00,Wunderground v.1.15,2013-05-21 10:35:00,
2013-05-21 06:40:00,64.9,62.5,29.94,SSE,155,0.0,3.0,92,0.00,,,0.00,Wunderground v.1.15,2013-05-21 10:40:00,
2013-05-21 06:45:00,65.4,63.0,29.94,South,170,1.0,3.0,92,0.00,,,0.00,Wunderground v.1.15,2013-05-21 10:45:00,
2013-05-21 06:50:00,65.9,63.2,29.94,South,170,0.0,3.0,91,0.00,,,0.00,Wunderground v.1.15,2013-05-21 10:50:00,
2013-05-21 06:55:00,66.5,63.5,29.94,South,170,0.0,3.0,90,0.00,,,0.00,Wunderground v.1.15,2013-05-21 10:55:00,
2013-05-21 07:00:00,67.3,64.3,29.94,South,169,0.0,3.0,90,0.00,,,0.00,Wunderground v.1.15,2013-05-21 11:00:00,
2013-05-21 07:05:00,68.2,64.5,29.94,South,170,0.0,3.0,88,0.00,,,0.00,Wunderground v.1.15,2013-05-21 11:05:00,
2013-05-21 07:10:00,68.6,64.2,29.94,South,169,0.0,3.0,86,0.00,,,0.00,Wunderground v.1.15,2013-05-21 11:10:00,
2013-05-21 07:15:00,68.9,64.2,29.94,South,183,0.0,3.0,85,0.00,,,0.00,Wunderground v.1.15,2013-05-21 11:15:00,
2013-05-21 07:20:00,69.4,64.7,29.94,South,183,0.0,3.0,85,0.00,,,0.00,Wunderground v.1.15,2013-05-21 11:20:00,
2013-05-21 07:25:00,69.4,64.4,29.94,SW,231,0.0,3.0,84,0.00,,,0.00,Wunderground v.1.15,2013-05-21 11:25:00,
2013-05-21 07:30:00,69.5,64.5,29.94,SW,231,0.0,3.0,84,0.00,,,0.00,Wunderground v.1.15,2013-05-21 11:30:00,
2013-05-21 07:35:00,69.9,64.5,29.95,SW,226,0.0,3.0,83,0.00,,,0.00,Wunderground v.1.15,2013-05-21 11:35:00,
2013-05-21 07:40:00,70.2,64.4,29.95,SW,226,0.0,3.0,82,0.00,,,0.00,Wunderground v.1.15,2013-05-21 11:40:00,
2013-05-21 07:45:00,70.5,64.7,29.95,SW,226,0.0,3.0,82,0.00,,,0.00,Wunderground v.1.15,2013-05-21 11:45:00,
2013-05-21 07:50:00,70.9,65.1,29.94,SW,219,0.0,3.0,82,0.00,,,0.00,Wunderground v.1.15,2013-05-21 11:50:00,
2013-05-21 07:55:00,71.2,65.4,29.95,SSE,153,0.0,3.0,82,0.00,,,0.00,Wunderground v.1.15,2013-05-21 11:55:00,
2013-05-21 08:00:00,71.8,66.0,29.95,South,173,0.0,3.0,82,0.00,,,0.00,Wunderground v.1.15,2013-05-21 12:00:00,
2013-05-21 08:05:00,72.4,66.2,29.95,South,174,0.0,3.0,81,0.00,,,0.00,Wunderground v.1.15,2013-05-21 12:05:00,
2013-05-21 08:10:00,72.8,66.3,29.95,SSE,168,0.0,3.0,80,0.00,,,0.00,Wunderground v.1.15,2013-05-21 12:10:00,
2013-05-21 08:15:00,73.1,66.6,29.95,SSW,209,0.0,3.0,80,0.00,,,0.00,Wunderground v.1.15,2013-05-21 12:15:00,
2013-05-21 08:20:00,73.4,66.5,29.95,SSE,167,0.0,3.0,79,0.00,,,0.00,Wunderground v.1.15,2013-05-21 12:20:00,
2013-05-21 08:25:00,73.4,66.5,29.94,South,169,0.0,3.0,79,0.00,,,0.00,Wunderground v.1.15,2013-05-21 12:25:00,
2013-05-21 08:30:00,73.3,66.4,29.94,South,188,0.0,3.0,79,0.00,,,0.00,Wunderground v.1.15,2013-05-21 12:30:00,
2013-05-21 08:35:00,73.7,67.1,29.94,WSW,244,1.0,4.0,80,0.00,,,0.00,Wunderground v.1.15,2013-05-21 12:35:00,
2013-05-21 08:40:00,74.3,67.4,29.94,NW,321,1.0,1.0,79,0.00,,,0.00,Wunderground v.1.15,2013-05-21 12:40:00,
2013-05-21 08:45:00,74.4,66.7,29.94,SW,214,1.0,4.0,77,0.00,,,0.00,Wunderground v.1.15,2013-05-21 12:45:00,
2013-05-21 08:50:00,74.5,66.8,29.94,SSW,198,1.0,3.0,77,0.00,,,0.00,Wunderground v.1.15,2013-05-21 12:50:00,
2013-05-21 08:55:00,74.7,67.0,29.94,South,176,1.0,3.0,77,0.00,,,0.00,Wunderground v.1.15,2013-05-21 12:55:00,
2013-05-21 09:00:00,75.0,66.9,29.94,SSW,212,1.0,1.0,76,0.00,,,0.00,Wunderground v.1.15,2013-05-21 13:00:00,
2013-05-21 09:05:00,75.5,67.0,29.94,South,175,1.0,2.0,75,0.00,,,0.00,Wunderground v.1.15,2013-05-21 13:05:00,
2013-05-21 09:10:00,75.9,67.4,29.94,NW,307,1.0,3.0,75,0.00,,,0.00,Wunderground v.1.15,2013-05-21 13:10:00,
2013-05-21 09:15:00,76.1,67.6,29.94,SSE,150,2.0,3.0,75,0.00,,,0.00,Wunderground v.1.15,2013-05-21 13:15:00,
2013-05-21 09:25:00,77.1,67.8,29.93,SSE,155,1.0,3.0,73,0.00,,,0.00,Wunderground v.1.15,2013-05-21 13:25:00,
2013-05-21 09:30:00,77.5,68.2,29.93,WSW,245,1.0,1.0,73,0.00,,,0.00,Wunderground v.1.15,2013-05-21 13:30:00,
2013-05-21 09:35:00,78.0,67.8,29.93,SE,132,1.0,3.0,71,0.00,,,0.00,Wunderground v.1.15,2013-05-21 13:35:00,
2013-05-21 09:40:00,78.3,68.1,29.93,SW,215,1.0,4.0,71,0.00,,,0.00,Wunderground v.1.15,2013-05-21 13:40:00,
2013-05-21 09:45:00,78.6,68.0,29.93,NW,314,1.0,4.0,70,0.00,,,0.00,Wunderground v.1.15,2013-05-21 13:45:00,
2013-05-21 09:50:00,78.8,68.2,29.93,WNW,295,1.0,1.0,70,0.00,,,0.00,Wunderground v.1.15,2013-05-21 13:50:00,
2013-05-21 09:55:00,78.8,68.2,29.93,SW,225,1.0,3.0,70,0.00,,,0.00,Wunderground v.1.15,2013-05-21 13:55:00,
2013-05-21 10:00:00,78.7,68.9,29.93,WNW,285,1.0,1.0,72,0.00,,,0.00,Wunderground v.1.15,2013-05-21 14:00:00,
2013-05-21 10:05:00,78.8,68.2,29.93,SSW,203,0.0,3.0,70,0.00,,,0.00,Wunderground v.1.15,2013-05-21 14:05:00,
2013-05-21 10:10:00,79.1,68.5,29.92,West,261,0.0,3.0,70,0.00,,,0.00,Wunderground v.1.15,2013-05-21 14:10:00,
2013-05-21 10:15:00,79.3,68.2,29.92,SSW,212,0.0,3.0,69,0.00,,,0.00,Wunderground v.1.15,2013-05-21 14:15:00,
2013-05-21 10:20:00,79.4,68.3,29.92,WSW,256,1.0,3.0,69,0.00,,,0.00,Wunderground v.1.15,2013-05-21 14:20:00,
2013-05-21 10:25:00,79.9,68.8,29.92,WNW,300,1.0,3.0,69,0.00,,,0.00,Wunderground v.1.15,2013-05-21 14:25:00,
2013-05-21 10:30:00,80.1,68.6,29.92,SW,217,1.0,3.0,68,0.00,,,0.00,Wunderground v.1.15,2013-05-21 14:30:00,
2013-05-21 10:35:00,80.5,68.5,29.92,South,172,2.0,3.0,67,0.00,,,0.00,Wunderground v.1.15,2013-05-21 14:35:00,
2013-05-21 10:40:00,80.5,67.6,29.92,SW,236,2.0,2.0,65,0.00,,,0.00,Wunderground v.1.15,2013-05-21 14:40:00,
2013-05-21 10:45:00,80.2,68.7,29.92,NW,314,2.0,3.0,68,0.00,,,0.00,Wunderground v.1.15,2013-05-21 14:45:00,
2013-05-21 10:50:00,80.1,68.2,29.92,WNW,293,1.0,3.0,67,0.00,,,0.00,Wunderground v.1.15,2013-05-21 14:50:00,
2013-05-21 10:55:00,80.1,68.6,29.92,WNW,291,1.0,3.0,68,0.00,,,0.00,Wunderground v.1.15,2013-05-21 14:55:00,
2013-05-21 11:00:00,80.6,68.6,29.92,West,270,1.0,1.0,67,0.00,,,0.00,Wunderground v.1.15,2013-05-21 15:00:00,
2013-05-21 11:05:00,81.0,69.0,29.91,West,270,1.0,3.0,67,0.00,,,0.00,Wunderground v.1.15,2013-05-21 15:05:00,
2013-05-21 11:10:00,81.5,69.5,29.91,WNW,290,0.0,3.0,67,0.00,,,0.00,Wunderground v.1.15,2013-05-21 15:10:00,
2013-05-21 11:15:00,81.8,68.9,29.91,WNW,291,0.0,3.0,65,0.00,,,0.00,Wunderground v.1.15,2013-05-21 15:15:00,
2013-05-21 11:20:00,81.6,68.2,29.91,WNW,291,0.0,3.0,64,0.00,,,0.00,Wunderground v.1.15,2013-05-21 15:20:00,
2013-05-21 11:25:00,81.8,68.4,29.90,ENE,58,0.0,3.0,64,0.00,,,0.00,Wunderground v.1.15,2013-05-21 15:25:00,
2013-05-21 11:30:00,82.1,69.2,29.90,WNW,285,0.0,3.0,65,0.00,,,0.00,Wunderground v.1.15,2013-05-21 15:30:00,
2013-05-21 11:35:00,82.5,70.0,29.89,NE,37,0.0,3.0,66,0.00,,,0.00,Wunderground v.1.15,2013-05-21 15:35:00,
2013-05-21 11:40:00,83.4,70.4,29.89,NW,316,0.0,3.0,65,0.00,,,0.00,Wunderground v.1.15,2013-05-21 15:40:00,
2013-05-21 11:45:00,84.3,69.4,29.89,WNW,296,0.0,3.0,61,0.00,,,0.00,Wunderground v.1.15,2013-05-21 15:45:00,
2013-05-21 11:50:00,84.2,68.8,29.89,WNW,295,0.0,3.0,60,0.00,,,0.00,Wunderground v.1.15,2013-05-21 15:50:00,
2013-05-21 11:55:00,83.5,68.6,29.89,WNW,297,1.0,3.0,61,0.00,,,0.00,Wunderground v.1.15,2013-05-21 15:55:00,
2013-05-21 12:00:00,82.9,68.1,29.89,WNW,297,1.0,1.0,61,0.00,,,0.00,Wunderground v.1.15,2013-05-21 16:00:00,
2013-05-21 12:05:00,83.2,69.3,29.89,WNW,295,1.0,3.0,63,0.00,,,0.00,Wunderground v.1.15,2013-05-21 16:05:00,
2013-05-21 12:10:00,84.0,69.1,29.89,WNW,295,0.0,3.0,61,0.00,,,0.00,Wunderground v.1.15,2013-05-21 16:10:00,
2013-05-21 12:15:00,85.0,69.1,29.89,SW,233,0.0,3.0,59,0.00,,,0.00,Wunderground v.1.15,2013-05-21 16:15:00,
2013-05-21 12:20:00,85.6,69.1,29.89,SSE,152,0.0,3.0,58,0.00,,,0.00,Wunderground v.1.15,2013-05-21 16:20:00,
2013-05-21 12:25:00,85.3,69.3,29.89,WSW,248,1.0,4.0,59,0.00,,,0.00,Wunderground v.1.15,2013-05-21 16:25:00,
2013-05-21 12:30:00,85.8,70.3,29.89,West,262,1.0,3.0,60,0.00,,,0.00,Wunderground v.1.15,2013-05-21 16:30:00,
2013-05-21 12:35:00,85.5,69.5,29.89,WSW,242,1.0,3.0,59,0.00,,,0.00,Wunderground v.1.15,2013-05-21 16:35:00,
2013-05-21 12:40:00,84.9,68.5,29.88,West,274,1.0,1.0,58,0.00,,,0.00,Wunderground v.1.15,2013-05-21 16:40:00,
2013-05-21 12:45:00,85.3,69.3,29.88,West,277,1.0,3.0,59,0.00,,,0.00,Wunderground v.1.15,2013-05-21 16:45:00,
2013-05-21 12:50:00,85.9,69.9,29.87,SW,232,1.0,3.0,59,0.00,,,0.00,Wunderground v.1.15,2013-05-21 16:50:00,
2013-05-21 12:55:00,86.2,68.7,29.87,SW,217,1.0,3.0,56,0.00,,,0.00,Wunderground v.1.15,2013-05-21 16:55:00,
2013-05-21 13:00:00,86.5,68.9,29.87,SSW,204,1.0,3.0,56,0.00,,,0.00,Wunderground v.1.15,2013-05-21 17:00:00,
2013-05-21 13:05:00,85.7,67.7,29.87,South,191,3.0,3.0,55,0.00,,,0.00,Wunderground v.1.15,2013-05-21 17:05:00,
2013-05-21 13:10:00,85.1,67.6,29.87,SW,236,2.0,2.0,56,0.00,,,0.00,Wunderground v.1.15,2013-05-21 17:10:00,
2013-05-21 13:15:00,84.8,67.9,29.87,WSW,243,0.0,3.0,57,0.00,,,0.00,Wunderground v.1.15,2013-05-21 17:15:00,
2013-05-21 13:20:00,84.5,68.6,29.87,West,276,0.0,3.0,59,0.00,,,0.00,Wunderground v.1.15,2013-05-21 17:20:00,
2013-05-21 13:25:00,83.9,67.0,29.87,SW,214,0.0,3.0,57,0.00,,,0.00,Wunderground v.1.15,2013-05-21 17:25:00,
2013-05-21 13:30:00,83.7,67.8,29.87,SW,214,0.0,3.0,59,0.00,,,0.00,Wunderground v.1.15,2013-05-21 17:30:00,
2013-05-21 13:35:00,83.3,68.4,29.87,SW,225,0.0,3.0,61,0.00,,,0.00,Wunderground v.1.15,2013-05-21 17:35:00,
2013-05-21 13:40:00,82.5,68.6,29.87,NE,46,0.0,3.0,63,0.00,,,0.00,Wunderground v.1.15,2013-05-21 17:40:00,
2013-05-21 13:45:00,81.3,68.9,29.87,NE,47,1.0,3.0,66,0.00,,,0.00,Wunderground v.1.15,2013-05-21 17:45:00,
2013-05-21 13:50:00,79.9,68.8,29.86,NE,53,1.0,3.0,69,0.00,,,0.00,Wunderground v.1.15,2013-05-21 17:50:00,
2013-05-21 13:55:00,78.7,68.9,29.86,NE,46,2.0,3.0,72,0.00,,,0.00,Wunderground v.1.15,2013-05-21 17:55:00,
2013-05-21 14:00:00,78.5,69.5,29.86,NE,46,1.0,3.0,74,0.00,,,0.00,Wunderground v.1.15,2013-05-21 18:00:00,
2013-05-21 14:05:00,77.7,69.5,29.86,NE,51,1.0,3.0,76,0.00,,,0.00,Wunderground v.1.15,2013-05-21 18:05:00,
2013-05-21 14:10:00,77.1,69.3,29.86,NE,51,2.0,2.0,77,0.00,,,0.00,Wunderground v.1.15,2013-05-21 18:10:00,
2013-05-21 14:15:00,76.9,69.1,29.85,NE,51,1.0,3.0,77,0.00,,,0.00,Wunderground v.1.15,2013-05-21 18:15:00,
2013-05-21 14:20:00,76.9,69.1,29.85,NE,51,1.0,1.0,77,0.00,,,0.00,Wunderground v.1.15,2013-05-21 18:20:00,
2013-05-21 14:25:00,77.0,69.6,29.84,NE,56,0.0,3.0,78,0.00,,,0.00,Wunderground v.1.15,2013-05-21 18:25:00,
2013-05-21 14:30:00,77.1,69.7,29.84,ENE,57,0.0,3.0,78,0.00,,,0.00,Wunderground v.1.15,2013-05-21 18:30:00,
2013-05-21 14:35:00,77.3,69.9,29.84,NW,305,0.0,3.0,78,0.00,,,0.00,Wunderground v.1.15,2013-05-21 18:35:00,
2013-05-21 14:40:00,77.4,70.7,29.83,NW,307,0.0,3.0,80,0.00,,,0.00,Wunderground v.1.15,2013-05-21 18:40:00,
2013-05-21 14:45:00,77.6,70.6,29.83,NW,306,0.0,3.0,79,0.00,,,0.00,Wunderground v.1.15,2013-05-21 18:45:00,
2013-05-21 14:50:00,77.6,70.6,29.83,NW,305,0.0,3.0,79,0.00,,,0.00,Wunderground v.1.15,2013-05-21 18:50:00,
2013-05-21 14:55:00,77.7,70.7,29.83,NNW,328,0.0,3.0,79,0.00,,,0.00,Wunderground v.1.15,2013-05-21 18:55:00,
2013-05-21 15:00:00,77.8,70.8,29.83,NNW,328,0.0,3.0,79,0.00,,,0.00,Wunderground v.1.15,2013-05-21 19:00:00,
2013-05-21 15:05:00,77.7,70.3,29.83,NW,319,0.0,3.0,78,0.00,,,0.00,Wunderground v.1.15,2013-05-21 19:05:00,
2013-05-21 15:10:00,78.0,71.3,29.83,NW,306,0.0,3.0,80,0.00,,,0.00,Wunderground v.1.15,2013-05-21 19:10:00,
2013-05-21 15:15:00,78.2,70.8,29.83,NW,306,0.0,3.0,78,0.00,,,0.00,Wunderground v.1.15,2013-05-21 19:15:00,
2013-05-21 15:20:00,78.6,70.8,29.82,NW,307,0.0,3.0,77,0.00,,,0.00,Wunderground v.1.15,2013-05-21 19:20:00,
2013-05-21 15:25:00,79.3,71.1,29.82,NW,307,0.0,3.0,76,0.00,,,0.00,Wunderground v.1.15,2013-05-21 19:25:00,
2013-05-21 15:30:00,80.0,71.8,29.82,NW,307,0.0,3.0,76,0.00,,,0.00,Wunderground v.1.15,2013-05-21 19:30:00,
2013-05-21 15:35:00,80.6,71.5,29.82,NW,306,0.0,3.0,74,0.00,,,0.00,Wunderground v.1.15,2013-05-21 19:35:00,
2013-05-21 15:40:00,81.2,72.5,29.82,NW,306,0.0,3.0,75,0.00,,,0.00,Wunderground v.1.15,2013-05-21 19:40:00,
2013-05-21 15:45:00,82.0,72.5,29.82,NW,307,0.0,3.0,73,0.00,,,0.00,Wunderground v.1.15,2013-05-21 19:45:00,
2013-05-21 15:50:00,82.2,72.7,29.82,NW,316,0.0,3.0,73,0.00,,,0.00,Wunderground v.1.15,2013-05-21 19:50:00,
2013-05-21 15:55:00,83.2,73.6,29.81,NW,316,0.0,3.0,73,0.00,,,0.00,Wunderground v.1.15,2013-05-21 19:55:00,
2013-05-21 16:00:00,83.7,73.3,29.81,NW,316,0.0,3.0,71,0.00,,,0.00,Wunderground v.1.15,2013-05-21 20:00:00,
2013-05-21 16:05:00,83.8,72.1,29.81,NW,316,0.0,3.0,68,0.00,,,0.00,Wunderground v.1.15,2013-05-21 20:05:00,
2013-05-21 16:15:00,83.4,73.0,29.80,NW,315,0.0,3.0,71,0.00,,,0.00,Wunderground v.1.15,2013-05-21 20:15:00,
2013-05-21 16:20:00,82.8,73.3,29.80,NW,315,0.0,3.0,73,0.00,,,0.00,Wunderground v.1.15,2013-05-21 20:20:00,
2013-05-21 16:25:00,82.7,73.2,29.80,NW,315,0.0,3.0,73,0.00,,,0.00,Wunderground v.1.15,2013-05-21 20:25:00,
2013-05-21 16:30:00,82.9,73.4,29.80,NW,315,0.0,3.0,73,0.00,,,0.00,Wunderground v.1.15,2013-05-21 20:30:00,
2013-05-21 16:35:00,83.0,73.0,29.80,NW,315,0.0,3.0,72,0.00,,,0.00,Wunderground v.1.15,2013-05-21 20:35:00,
2013-05-21 16:40:00,82.9,72.5,29.80,NW,315,0.0,3.0,71,0.00,,,0.00,Wunderground v.1.15,2013-05-21 20:40:00,
2013-05-21 16:45:00,82.8,73.3,29.80,NW,315,0.0,3.0,73,0.00,,,0.00,Wunderground v.1.15,2013-05-21 20:45:00,
2013-05-21 16:50:00,83.0,73.4,29.80,NW,314,0.0,3.0,73,0.00,,,0.00,Wunderground v.1.15,2013-05-21 20:50:00,
2013-05-21 16:55:00,83.1,73.5,29.79,NW,315,0.0,3.0,73,0.00,,,0.00,Wunderground v.1.15,2013-05-21 20:55:00,
2013-05-21 17:00:00,83.0,73.9,29.79,NNW,328,0.0,3.0,74,0.00,,,0.00,Wunderground v.1.15,2013-05-21 21:00:00,
2013-05-21 17:05:00,83.3,74.5,29.79,NW,323,0.0,3.0,75,0.00,,,0.00,Wunderground v.1.15,2013-05-21 21:05:00,
2013-05-21 17:10:00,83.4,75.0,29.80,NW,322,0.0,3.0,76,0.00,,,0.00,Wunderground v.1.15,2013-05-21 21:10:00,
2013-05-21 17:15:00,83.4,74.6,29.79,NW,325,0.0,3.0,75,0.00,,,0.00,Wunderground v.1.15,2013-05-21 21:15:00,
2013-05-21 17:20:00,83.9,75.1,29.79,NNW,330,0.0,3.0,75,0.00,,,0.00,Wunderground v.1.15,2013-05-21 21:20:00,
2013-05-21 17:25:00,84.1,74.5,29.79,NNW,328,0.0,3.0,73,0.00,,,0.00,Wunderground v.1.15,2013-05-21 21:25:00,
2013-05-21 17:30:00,84.8,75.6,29.78,NNW,328,0.0,3.0,74,0.00,,,0.00,Wunderground v.1.15,2013-05-21 21:30:00,
2013-05-21 17:35:00,85.2,70.7,29.78,NNW,328,0.0,3.0,62,0.00,,,0.00,Wunderground v.1.15,2013-05-21 21:35:00,
2013-05-21 17:40:00,85.4,72.3,29.78,WNW,288,0.0,3.0,65,0.00,,,0.00,Wunderground v.1.15,2013-05-21 21:40:00,
2013-05-21 17:45:00,85.7,68.2,29.77,SSW,204,1.0,3.0,56,0.00,,,0.00,Wunderground v.1.15,2013-05-21 21:45:00,
2013-05-21 17:50:00,86.6,66.9,29.77,SW,217,1.0,3.0,52,0.00,,,0.00,Wunderground v.1.15,2013-05-21 21:50:00,
2013-05-21 17:55:00,87.4,65.3,29.77,SW,226,2.0,3.0,48,0.00,,,0.00,Wunderground v.1.15,2013-05-21 21:55:00,
2013-05-21 18:00:00,87.3,66.4,29.77,SSW,212,2.0,3.0,50,0.00,,,0.00,Wunderground v.1.15,2013-05-21 22:00:00,
2013-05-21 18:05:00,86.5,65.1,29.78,West,266,1.0,3.0,49,0.00,,,0.00,Wunderground v.1.15,2013-05-21 22:05:00,
2013-05-21 18:10:00,85.9,64.5,29.77,NW,308,1.0,1.0,49,0.00,,,0.00,Wunderground v.1.15,2013-05-21 22:10:00,
2013-05-21 18:15:00,85.5,64.7,29.77,SW,232,1.0,3.0,50,0.00,,,0.00,Wunderground v.1.15,2013-05-21 22:15:00,
2013-05-21 18:20:00,85.1,66.0,29.77,SSE,167,1.0,1.0,53,0.00,,,0.00,Wunderground v.1.15,2013-05-21 22:20:00,
2013-05-21 18:25:00,84.5,66.0,29.77,SSW,204,0.0,3.0,54,0.00,,,0.00,Wunderground v.1.15,2013-05-21 22:25:00,
2013-05-21 18:30:00,83.7,66.8,29.77,SSW,204,0.0,3.0,57,0.00,,,0.00,Wunderground v.1.15,2013-05-21 22:30:00,
2013-05-21 18:35:00,82.8,66.5,29.78,SSW,204,0.0,3.0,58,0.00,,,0.00,Wunderground v.1.15,2013-05-21 22:35:00,
2013-05-21 18:40:00,81.2,66.0,29.81,NE,39,1.0,6.0,60,0.00,,,0.00,Wunderground v.1.15,2013-05-21 22:40:00,
2013-05-21 18:45:00,76.8,64.6,29.83,NE,52,3.0,6.0,66,1.01,,,0.03,Wunderground v.1.15,2013-05-21 22:45:00,
2013-05-21 18:50:00,70.6,61.9,29.82,NE,46,3.0,3.0,74,0.59,,,0.16,Wunderground v.1.15,2013-05-21 22:50:00,
2013-05-21 18:55:00,67.1,60.7,29.82,NE,50,2.0,3.0,80,0.11,,,0.16,Wunderground v.1.15,2013-05-21 22:55:00,
2013-05-21 19:00:00,65.4,60.4,29.81,NE,50,1.0,1.0,84,0.06,,,0.16,Wunderground v.1.15,2013-05-21 23:00:00,
2013-05-21 19:05:00,64.9,60.6,29.81,WNW,284,0.0,3.0,86,0.04,,,0.16,Wunderground v.1.15,2013-05-21 23:05:00,
2013-05-21 19:10:00,64.4,60.4,29.81,WNW,284,0.0,3.0,87,0.00,,,0.16,Wunderground v.1.15,2013-05-21 23:10:00,
2013-05-21 19:15:00,64.1,60.5,29.81,SW,219,0.0,3.0,88,0.00,,,0.16,Wunderground v.1.15,2013-05-21 23:15:00,
2013-05-21 19:20:00,63.9,60.6,29.81,SSE,162,0.0,3.0,89,0.00,,,0.16,Wunderground v.1.15,2013-05-21 23:20:00,
2013-05-21 19:25:00,64.1,61.1,29.80,SSE,162,0.0,3.0,90,0.00,,,0.17,Wunderground v.1.15,2013-05-21 23:25:00,
2013-05-21 19:30:00,64.1,61.1,29.80,SSE,162,0.0,3.0,90,0.00,,,0.17,Wunderground v.1.15,2013-05-21 23:30:00,
2013-05-21 19:35:00,63.9,61.2,29.79,SSE,162,0.0,3.0,91,0.00,,,0.17,Wunderground v.1.15,2013-05-21 23:35:00,
2013-05-21 19:40:00,63.9,61.2,29.79,SSE,162,0.0,3.0,91,0.00,,,0.17,Wunderground v.1.15,2013-05-21 23:40:00,
2013-05-21 19:45:00,63.9,61.2,29.79,SSE,162,0.0,3.0,91,0.00,,,0.17,Wunderground v.1.15,2013-05-21 23:45:00,
2013-05-21 19:50:00,63.9,61.5,29.79,SSE,162,0.0,3.0,92,0.00,,,0.18,Wunderground v.1.15,2013-05-21 23:50:00,
2013-05-21 19:55:00,63.9,61.5,29.79,SSE,162,0.0,3.0,92,0.00,,,0.18,Wunderground v.1.15,2013-05-21 23:55:00,
2013-05-21 20:00:00,63.9,61.5,29.79,SSE,162,0.0,3.0,92,0.08,,,0.19,Wunderground v.1.15,2013-05-22 00:00:00,
2013-05-21 20:05:00,64.1,62.0,29.79,SSE,162,0.0,3.0,93,0.07,,,0.19,Wunderground v.1.15,2013-05-22 00:05:00,
2013-05-21 20:10:00,64.2,61.8,29.78,SSE,162,0.0,3.0,92,0.05,,,0.19,Wunderground v.1.15,2013-05-22 00:10:00,
2013-05-21 20:15:00,64.2,62.1,29.78,South,179,0.0,3.0,93,0.00,,,0.19,Wunderground v.1.15,2013-05-22 00:15:00,
2013-05-21 20:20:00,64.2,62.1,29.78,SSW,194,0.0,3.0,93,0.00,,,0.19,Wunderground v.1.15,2013-05-22 00:20:00,
2013-05-21 20:25:00,64.1,62.0,29.77,SSW,194,0.0,3.0,93,0.00,,,0.19,Wunderground v.1.15,2013-05-22 00:25:00,
2013-05-21 20:30:00,64.0,61.9,29.77,SSW,194,0.0,3.0,93,0.00,,,0.19,Wunderground v.1.15,2013-05-22 00:30:00,
2013-05-21 20:35:00,64.1,62.0,29.77,SW,214,0.0,3.0,93,0.00,,,0.19,Wunderground v.1.15,2013-05-22 00:35:00,
2013-05-21 20:40:00,64.2,62.4,29.79,WNW,283,0.0,3.0,94,0.00,,,0.19,Wunderground v.1.15,2013-05-22 00:40:00,
2013-05-21 20:45:00,64.3,62.5,29.81,NE,53,1.0,3.0,94,0.00,,,0.19,Wunderground v.1.15,2013-05-22 00:45:00,
2013-05-21 20:50:00,65.0,63.5,29.83,West,278,2.0,2.0,95,0.00,,,0.19,Wunderground v.1.15,2013-05-22 00:50:00,
2013-05-21 20:55:00,65.6,64.1,29.85,WNW,298,2.0,3.0,95,3.95,,,0.36,Wunderground v.1.15,2013-05-22 00:55:00,
2013-05-21 21:00:00,65.4,63.3,29.83,NE,35,2.0,3.0,93,3.27,,,0.62,Wunderground v.1.15,2013-05-22 01:00:00,
2013-05-21 21:05:00,65.0,62.9,29.82,ENE,62,2.0,3.0,93,0.32,,,0.74,Wunderground v.1.15,2013-05-22 01:05:00,
2013-05-21 21:10:00,64.9,62.8,29.81,WSW,239,1.0,3.0,93,0.28,,,0.77,Wunderground v.1.15,2013-05-22 01:10:00,
2013-05-21 21:15:00,64.7,62.6,29.79,ESE,104,1.0,3.0,93,0.10,,,0.78,Wunderground v.1.15,2013-05-22 01:15:00,
2013-05-21 21:20:00,64.6,62.8,29.79,WNW,288,1.0,1.0,94,0.24,,,0.80,Wunderground v.1.15,2013-05-22 01:20:00,
2013-05-21 21:25:00,64.6,62.8,29.79,WSW,248,0.0,3.0,94,0.08,,,0.80,Wunderground v.1.15,2013-05-22 01:25:00,
2013-05-21 21:30:00,64.6,62.8,29.79,SSW,205,0.0,3.0,94,0.05,,,0.80,Wunderground v.1.15,2013-05-22 01:30:00,
2013-05-21 21:35:00,64.5,62.7,29.80,SW,225,1.0,3.0,94,0.00,,,0.80,Wunderground v.1.15,2013-05-22 01:35:00,
2013-05-21 21:40:00,64.5,62.7,29.80,SW,225,0.0,3.0,94,0.00,,,0.80,Wunderground v.1.15,2013-05-22 01:40:00,
2013-05-21 21:45:00,64.5,62.7,29.79,SW,225,0.0,3.0,94,0.00,,,0.80,Wunderground v.1.15,2013-05-22 01:45:00,
2013-05-21 21:50:00,64.4,62.6,29.79,SSW,212,0.0,3.0,94,0.00,,,0.80,Wunderground v.1.15,2013-05-22 01:50:00,
2013-05-21 21:55:00,64.6,63.1,29.80,SW,226,0.0,3.0,95,0.00,,,0.80,Wunderground v.1.15,2013-05-22 01:55:00,
2013-05-21 22:00:00,64.6,62.8,29.79,SW,226,0.0,3.0,94,0.00,,,0.80,Wunderground v.1.15,2013-05-22 02:00:00,
2013-05-21 22:05:00,64.5,62.7,29.79,SW,226,0.0,3.0,94,0.00,,,0.80,Wunderground v.1.15,2013-05-22 02:05:00,
2013-05-21 22:10:00,64.6,63.1,29.82,WNW,293,0.0,3.0,95,0.00,,,0.80,Wunderground v.1.15,2013-05-22 02:10:00,
2013-05-21 22:15:00,64.7,63.2,29.83,NE,51,1.0,4.0,95,0.62,,,0.86,Wunderground v.1.15,2013-05-22 02:15:00,
2013-05-21 22:20:00,64.8,63.3,29.84,NW,326,2.0,2.0,95,2.18,,,1.01,Wunderground v.1.15,2013-05-22 02:20:00,
2013-05-21 22:25:00,64.8,63.3,29.84,North,353,1.0,3.0,95,2.43,,,1.16,Wunderground v.1.15,2013-05-22 02:25:00,
2013-05-21 22:30:00,64.7,63.2,29.84,SE,137,1.0,3.0,95,2.80,,,1.27,Wunderground v.1.15,2013-05-22 02:30:00,
2013-05-21 22:35:00,64.7,63.2,29.86,SW,226,1.0,3.0,95,0.67,,,1.34,Wunderground v.1.15,2013-05-22 02:35:00,
2013-05-21 22:40:00,64.6,63.1,29.84,SE,125,0.0,3.0,95,0.96,,,1.43,Wunderground v.1.15,2013-05-22 02:40:00,
2013-05-21 22:45:00,64.6,63.1,29.84,ENE,58,1.0,3.0,95,0.23,,,1.47,Wunderground v.1.15,2013-05-22 02:45:00,
2013-05-21 22:50:00,64.6,63.1,29.84,ESE,112,1.0,1.0,95,0.10,,,1.47,Wunderground v.1.15,2013-05-22 02:50:00,
2013-05-21 22:55:00,64.6,63.1,29.84,ESE,113,0.0,3.0,95,0.07,,,1.48,Wunderground v.1.15,2013-05-22 02:55:00,
2013-05-21 23:00:00,64.6,63.1,29.84,WSW,239,0.0,3.0,95,0.07,,,1.48,Wunderground v.1.15,2013-05-22 03:00:00,
2013-05-21 23:05:00,64.6,63.1,29.85,West,259,0.0,3.0,95,0.05,,,1.48,Wunderground v.1.15,2013-05-22 03:05:00,
2013-05-21 23:10:00,64.6,63.1,29.84,SW,222,0.0,3.0,95,0.00,,,1.48,Wunderground v.1.15,2013-05-22 03:10:00,
2013-05-21 23:15:00,64.5,63.0,29.85,SW,222,0.0,3.0,95,0.00,,,1.48,Wunderground v.1.15,2013-05-22 03:15:00,
2013-05-21 23:20:00,64.5,63.0,29.84,SSW,205,0.0,3.0,95,0.00,,,1.48,Wunderground v.1.15,2013-05-22 03:20:00,
2013-05-21 23:25:00,64.5,63.0,29.84,SSE,153,0.0,3.0,95,0.00,,,1.48,Wunderground v.1.15,2013-05-22 03:25:00,
2013-05-21 23:30:00,64.6,63.1,29.84,SW,214,1.0,1.0,95,0.00,,,1.49,Wunderground v.1.15,2013-05-22 03:30:00,
2013-05-21 23:35:00,64.6,63.1,29.84,South,169,0.0,3.0,95,0.00,,,1.49,Wunderground v.1.15,2013-05-22 03:35:00,
2013-05-21 23:40:00,64.7,63.2,29.85,South,169,0.0,3.0,95,0.00,,,1.49,Wunderground v.1.15,2013-05-22 03:40:00,
2013-05-21 23:45:00,64.7,63.2,29.84,South,169,0.0,3.0,95,0.00,,,1.49,Wunderground v.1.15,2013-05-22 03:45:00,
2013-05-21 23:50:00,64.7,63.2,29.84,South,169,0.0,3.0,95,0.00,,,1.49,Wunderground v.1.15,2013-05-22 03:50:00,